createdAt,value
2022-11-26T00:00:46.783Z,6.30
2022-11-26T00:01:43.951Z,6.40
2022-11-26T00:02:41.029Z,6.22
2022-11-26T00:03:37.876Z,5.72
2022-11-26T00:04:34.815Z,6.53
2022-11-26T00:05:32.703Z,6.38
2022-11-26T00:06:39.413Z,6.17
2022-11-26T00:07:36.291Z,6.39
2022-11-26T00:08:35.637Z,6.15
2022-11-26T00:09:32.444Z,6.45
2022-11-26T00:10:34.630Z,6.60
2022-11-26T00:11:31.927Z,6.08
2022-11-26T00:12:33.292Z,6.38
2022-11-26T00:13:31.445Z,6.43
2022-11-26T00:14:28.405Z,6.43
2022-11-26T00:15:30.586Z,5.97
2022-11-26T00:16:30.494Z,5.69
2022-11-26T00:17:27.337Z,6.30
2022-11-26T00:18:26.657Z,6.04
2022-11-26T00:19:23.591Z,6.05
2022-11-26T00:20:23.947Z,6.30
2022-11-26T00:21:24.591Z,5.29
2022-11-26T00:22:29.709Z,6.48
2022-11-26T00:23:28.450Z,6.03
2022-11-26T00:24:29.865Z,6.42
2022-11-26T00:25:37.329Z,6.64
2022-11-26T00:26:34.054Z,6.47
2022-11-26T00:27:31.259Z,6.80
2022-11-26T00:28:36.520Z,6.74
2022-11-26T00:29:33.285Z,6.90
2022-11-26T00:30:30.059Z,6.28
2022-11-26T00:31:29.160Z,6.21
2022-11-26T00:32:26.752Z,6.72
2022-11-26T00:33:24.679Z,6.43
2022-11-26T00:34:21.447Z,6.34
2022-11-26T00:35:19.156Z,6.78
2022-11-26T00:36:24.669Z,6.86
2022-11-26T00:37:26.043Z,6.28
2022-11-26T00:38:23.024Z,6.35
2022-11-26T00:39:24.142Z,5.84
2022-11-26T00:40:22.948Z,6.31
2022-11-26T00:41:23.719Z,5.79
2022-11-26T00:42:20.730Z,6.29
2022-11-26T00:43:18.531Z,5.47
2022-11-26T00:44:21.085Z,5.48
2022-11-26T00:45:24.021Z,5.59
2022-11-26T00:46:22.358Z,5.56
2022-11-26T00:47:19.276Z,5.49
2022-11-26T00:48:17.548Z,5.68
2022-11-26T00:49:15.304Z,5.62
2022-11-26T00:50:19.787Z,6.02
2022-11-26T00:51:20.938Z,4.90
2022-11-26T00:52:32.574Z,6.28
2022-11-26T00:53:29.413Z,6.16
2022-11-26T00:54:26.592Z,5.95
2022-11-26T00:55:35.143Z,5.98
2022-11-26T00:56:37.610Z,6.06
2022-11-26T00:57:35.256Z,5.85
2022-11-26T00:58:32.030Z,5.36
2022-11-26T00:59:28.702Z,5.72
2022-11-26T01:00:28.043Z,5.40
2022-11-26T01:01:28.824Z,5.56
2022-11-26T01:02:25.658Z,5.42
2022-11-26T01:03:22.453Z,4.76
2022-11-26T01:04:19.264Z,5.96
2022-11-26T01:05:18.034Z,5.16
2022-11-26T01:06:22.289Z,5.42
2022-11-26T01:07:19.076Z,5.77
2022-11-26T01:08:26.494Z,5.69
2022-11-26T01:09:23.407Z,5.62
2022-11-26T01:10:24.929Z,5.26
2022-11-26T01:11:23.634Z,5.61
2022-11-26T01:12:20.440Z,5.50
2022-11-26T01:13:17.197Z,5.03
2022-11-26T01:14:17.414Z,5.37
2022-11-26T01:15:15.286Z,5.15
2022-11-26T01:16:27.344Z,5.10
2022-11-26T01:17:24.236Z,5.01
2022-11-26T01:18:22.476Z,4.57
2022-11-26T01:19:19.295Z,4.64
2022-11-26T01:20:25.507Z,5.33
2022-11-26T01:21:25.731Z,5.46
2022-11-26T01:22:23.879Z,4.96
2022-11-26T01:23:20.863Z,5.02
2022-11-26T01:24:17.634Z,5.09
2022-11-26T01:25:14.498Z,5.23
2022-11-26T01:26:17.556Z,5.18
2022-11-26T01:27:14.822Z,4.91
2022-11-26T01:28:19.713Z,4.90
2022-11-26T01:29:18.215Z,5.35
2022-11-26T01:30:28.093Z,5.27
2022-11-26T01:31:28.267Z,4.15
2022-11-26T01:32:29.269Z,5.12
2022-11-26T01:33:26.372Z,4.99
2022-11-26T01:34:23.032Z,4.90
2022-11-26T01:35:21.424Z,4.95
2022-11-26T01:36:31.601Z,4.99
2022-11-26T01:37:28.332Z,5.29
2022-11-26T01:38:25.154Z,3.85
2022-11-26T01:39:23.820Z,4.29
2022-11-26T01:40:26.124Z,5.06
2022-11-26T01:41:42.553Z,5.05
2022-11-26T01:42:49.609Z,5.40
2022-11-26T01:43:50.679Z,4.96
2022-11-26T01:44:47.465Z,4.87
2022-11-26T01:45:44.343Z,4.95
2022-11-26T01:46:41.485Z,5.13
2022-11-26T01:47:38.233Z,5.05
2022-11-26T01:48:35.097Z,5.03
2022-11-26T01:49:34.096Z,4.89
2022-11-26T01:50:30.832Z,4.75
2022-11-26T01:51:29.429Z,4.84
2022-11-26T01:52:26.963Z,4.43
2022-11-26T01:53:45.750Z,4.83
2022-11-26T01:54:44.215Z,4.26
2022-11-26T01:55:48.061Z,4.33
2022-11-26T01:56:49.366Z,4.51
2022-11-26T01:57:46.926Z,5.64
2022-11-26T01:58:51.077Z,5.32
2022-11-26T01:59:57.460Z,4.61
2022-11-26T02:00:54.340Z,4.39
2022-11-26T02:01:55.201Z,4.40
2022-11-26T02:02:51.988Z,4.52
2022-11-26T02:04:20.098Z,4.53
2022-11-26T02:05:23.412Z,4.77
2022-11-26T02:06:26.595Z,4.76
2022-11-26T02:07:23.445Z,4.41
2022-11-26T02:08:20.745Z,4.25
2022-11-26T02:09:18.711Z,4.50
2022-11-26T02:10:15.678Z,4.98
2022-11-26T02:11:24.105Z,4.70
2022-11-26T02:12:21.302Z,4.56
2022-11-26T02:13:18.838Z,4.65
2022-11-26T02:14:27.132Z,4.57
2022-11-26T02:15:34.022Z,4.59
2022-11-26T02:16:45.523Z,4.04
2022-11-26T02:17:52.725Z,4.40
2022-11-26T02:19:26.882Z,4.83
2022-11-26T02:20:47.255Z,4.76
2022-11-26T02:21:56.097Z,3.98
2022-11-26T02:23:13.543Z,4.53
2022-11-26T02:24:48.111Z,4.49
2022-11-26T02:26:21.054Z,4.83
2022-11-26T02:27:39.583Z,4.73
2022-11-26T02:28:59.452Z,4.57
2022-11-26T02:30:22.135Z,4.95
2022-11-26T02:31:37.548Z,4.76
2022-11-26T02:33:02.744Z,4.29
2022-11-26T02:34:39.005Z,4.44
2022-11-26T02:35:46.273Z,4.82
2022-11-26T02:36:52.067Z,5.01
2022-11-26T02:37:59.366Z,5.03
2022-11-26T02:38:56.236Z,5.06
2022-11-26T02:39:53.183Z,4.73
2022-11-26T02:40:52.052Z,4.77
2022-11-26T02:41:56.612Z,4.68
2022-11-26T02:42:53.470Z,4.82
2022-11-26T02:43:50.308Z,4.75
2022-11-26T02:44:48.104Z,5.03
2022-11-26T02:45:52.488Z,5.12
2022-11-26T02:46:57.837Z,4.87
2022-11-26T02:48:00.222Z,4.49
2022-11-26T02:48:57.119Z,4.58
2022-11-26T02:49:57.848Z,4.56
2022-11-26T02:51:03.936Z,5.04
2022-11-26T02:52:05.029Z,4.12
2022-11-26T02:53:04.948Z,4.04
2022-11-26T02:54:02.714Z,4.14
2022-11-26T02:55:03.831Z,4.19
2022-11-26T02:56:17.353Z,3.92
2022-11-26T02:57:18.694Z,3.23
2022-11-26T02:58:16.489Z,4.46
2022-11-26T02:59:15.060Z,4.86
2022-11-26T03:00:13.287Z,4.69
2022-11-26T03:01:40.605Z,4.04
2022-11-26T03:02:54.548Z,3.74
2022-11-26T03:03:55.110Z,5.27
2022-11-26T03:04:58.271Z,5.13
2022-11-26T03:05:59.213Z,4.88
2022-11-26T03:07:03.378Z,5.05
2022-11-26T03:08:02.886Z,5.34
2022-11-26T03:08:59.722Z,5.35
2022-11-26T03:09:59.145Z,4.95
2022-11-26T03:10:55.873Z,4.91
2022-11-26T03:11:52.657Z,4.61
2022-11-26T03:12:49.437Z,4.44
2022-11-26T03:13:47.308Z,4.69
2022-11-26T03:14:44.183Z,4.51
2022-11-26T03:15:40.957Z,4.63
2022-11-26T03:16:38.107Z,4.97
2022-11-26T03:17:35.029Z,4.72
2022-11-26T03:18:31.785Z,4.99
2022-11-26T03:19:28.651Z,4.57
2022-11-26T03:20:25.419Z,4.98
2022-11-26T03:21:22.215Z,4.41
2022-11-26T03:22:18.973Z,4.69
2022-11-26T03:23:15.765Z,4.76
2022-11-26T03:24:12.487Z,4.49
2022-11-26T03:25:10.454Z,4.20
2022-11-26T03:26:07.504Z,4.57
2022-11-26T03:27:05.010Z,4.66
2022-11-26T03:28:02.491Z,4.51
2022-11-26T03:28:59.238Z,4.15
2022-11-26T03:29:56.084Z,4.54
2022-11-26T03:30:53.639Z,4.23
2022-11-26T03:31:50.620Z,4.63
2022-11-26T03:32:47.457Z,4.13
2022-11-26T03:33:44.207Z,4.36
2022-11-26T03:34:41.111Z,4.37
2022-11-26T03:35:37.979Z,4.26
2022-11-26T03:36:34.831Z,4.32
2022-11-26T03:37:32.297Z,4.28
2022-11-26T03:38:29.006Z,3.97
2022-11-26T03:39:25.851Z,4.16
2022-11-26T03:40:22.736Z,4.06
2022-11-26T03:41:19.523Z,3.77
2022-11-26T03:42:16.255Z,4.00
2022-11-26T03:43:13.044Z,4.10
2022-11-26T03:44:11.295Z,4.49
2022-11-26T03:45:08.484Z,4.13
2022-11-26T03:46:05.364Z,4.60
2022-11-26T03:47:02.323Z,3.88
2022-11-26T03:47:59.242Z,3.66
2022-11-26T03:48:56.094Z,3.57
2022-11-26T03:49:53.244Z,4.26
2022-11-26T03:50:50.028Z,3.76
2022-11-26T03:51:46.793Z,3.84
2022-11-26T03:52:43.623Z,4.15
2022-11-26T03:53:40.421Z,3.74
2022-11-26T03:54:37.542Z,4.07
2022-11-26T03:55:34.670Z,3.97
2022-11-26T03:56:31.497Z,4.38
2022-11-26T03:57:28.247Z,4.53
2022-11-26T03:58:25.145Z,4.44
2022-11-26T03:59:22.022Z,4.15
2022-11-26T04:00:19.332Z,4.34
2022-11-26T04:01:16.063Z,4.27
2022-11-26T04:02:12.934Z,4.29
2022-11-26T04:03:09.779Z,3.99
2022-11-26T04:04:06.875Z,4.17
2022-11-26T04:05:04.316Z,3.85
2022-11-26T04:06:01.044Z,4.59
2022-11-26T04:06:57.801Z,4.36
2022-11-26T04:07:54.613Z,4.03
2022-11-26T04:08:51.398Z,3.94
2022-11-26T04:09:48.111Z,4.34
2022-11-26T04:10:44.840Z,4.11
2022-11-26T04:11:41.733Z,4.11
2022-11-26T04:12:38.515Z,3.95
2022-11-26T04:13:35.711Z,3.88
2022-11-26T04:14:32.442Z,3.51
2022-11-26T04:15:30.192Z,4.05
2022-11-26T04:16:27.330Z,3.77
2022-11-26T04:17:24.206Z,3.41
2022-11-26T04:18:20.996Z,3.97
2022-11-26T04:19:17.796Z,3.19
2022-11-26T04:20:14.710Z,4.30
2022-11-26T04:21:11.404Z,3.84
2022-11-26T04:22:08.448Z,4.11
2022-11-26T04:23:05.675Z,3.72
2022-11-26T04:24:02.548Z,3.23
2022-11-26T04:24:59.277Z,3.73
2022-11-26T04:25:56.029Z,2.40
2022-11-26T04:26:52.862Z,4.15
2022-11-26T04:27:49.710Z,3.84
2022-11-26T04:28:46.466Z,4.02
2022-11-26T04:29:43.224Z,4.04
2022-11-26T04:30:39.937Z,0.75
2022-11-26T04:31:36.720Z,3.53
2022-11-26T04:32:33.551Z,3.69
2022-11-26T04:33:30.355Z,3.75
2022-11-26T04:34:27.114Z,3.94
2022-11-26T04:35:23.874Z,3.78
2022-11-26T04:36:21.951Z,4.12
2022-11-26T04:37:18.734Z,4.13
2022-11-26T04:38:15.493Z,4.42
2022-11-26T04:39:12.689Z,4.37
2022-11-26T04:40:10.510Z,2.75
2022-11-26T04:41:07.460Z,4.26
2022-11-26T04:42:04.267Z,3.75
2022-11-26T04:43:01.083Z,3.60
2022-11-26T04:43:57.738Z,3.09
2022-11-26T04:44:54.459Z,4.15
2022-11-26T04:45:51.228Z,4.28
2022-11-26T04:46:48.072Z,4.29
2022-11-26T04:47:44.756Z,3.40
2022-11-26T04:48:41.596Z,3.97
2022-11-26T04:49:38.335Z,4.19
2022-11-26T04:50:35.139Z,3.97
2022-11-26T04:51:32.067Z,3.94
2022-11-26T04:52:28.853Z,3.87
2022-11-26T04:53:25.683Z,3.72
2022-11-26T04:54:22.507Z,3.72
2022-11-26T04:55:19.352Z,3.65
2022-11-26T04:56:16.078Z,3.80
2022-11-26T04:57:12.920Z,3.84
2022-11-26T04:58:09.709Z,3.89
2022-11-26T04:59:06.483Z,3.80
2022-11-26T05:00:04.049Z,3.84
2022-11-26T05:01:00.791Z,4.27
2022-11-26T05:01:59.446Z,3.93
2022-11-26T05:02:56.252Z,3.69
2022-11-26T05:03:53.062Z,3.41
2022-11-26T05:04:49.972Z,3.97
2022-11-26T05:05:47.323Z,3.85
2022-11-26T05:06:44.112Z,3.57
2022-11-26T05:07:40.981Z,3.34
2022-11-26T05:08:37.924Z,3.74
2022-11-26T05:09:34.791Z,3.05
2022-11-26T05:10:31.768Z,3.92
2022-11-26T05:11:28.535Z,4.46
2022-11-26T05:12:25.840Z,4.50
2022-11-26T05:13:22.889Z,4.45
2022-11-26T05:14:19.738Z,3.44
2022-11-26T05:15:16.619Z,4.23
2022-11-26T05:16:13.426Z,4.01
2022-11-26T05:17:10.208Z,3.75
2022-11-26T05:18:07.026Z,3.57
2022-11-26T05:19:03.946Z,3.52
2022-11-26T05:20:00.724Z,3.58
2022-11-26T05:20:57.540Z,3.43
2022-11-26T05:21:54.288Z,3.56
2022-11-26T05:22:51.172Z,3.30
2022-11-26T05:23:47.987Z,4.15
2022-11-26T05:24:44.719Z,4.19
2022-11-26T05:25:41.457Z,4.20
2022-11-26T05:26:38.198Z,3.74
2022-11-26T05:27:35.449Z,3.85
2022-11-26T05:28:32.303Z,3.91
2022-11-26T05:29:29.065Z,3.65
2022-11-26T05:30:25.871Z,3.32
2022-11-26T05:31:22.761Z,3.90
2022-11-26T05:32:19.623Z,3.21
2022-11-26T05:33:16.339Z,3.98
2022-11-26T05:34:13.289Z,3.75
2022-11-26T05:35:10.077Z,3.66
2022-11-26T05:36:06.934Z,3.67
2022-11-26T05:37:03.751Z,3.58
2022-11-26T05:38:00.469Z,3.63
2022-11-26T05:38:57.233Z,2.69
2022-11-26T05:39:53.953Z,3.32
2022-11-26T05:40:51.107Z,3.38
2022-11-26T05:41:48.361Z,3.92
2022-11-26T05:42:45.055Z,3.79
2022-11-26T05:43:41.793Z,3.71
2022-11-26T05:44:38.773Z,3.22
2022-11-26T05:45:35.686Z,3.28
2022-11-26T05:46:32.890Z,4.04
2022-11-26T05:47:29.941Z,2.81
2022-11-26T05:48:26.610Z,4.13
2022-11-26T05:49:23.443Z,3.47
2022-11-26T05:50:20.225Z,3.61
2022-11-26T05:51:16.950Z,3.83
2022-11-26T05:52:13.759Z,4.05
2022-11-26T05:53:10.560Z,3.61
2022-11-26T05:54:07.624Z,3.81
2022-11-26T05:55:04.829Z,3.46
2022-11-26T05:56:01.658Z,3.52
2022-11-26T05:57:00.316Z,3.85
2022-11-26T05:57:57.422Z,2.88
2022-11-26T05:58:54.229Z,3.96
2022-11-26T05:59:51.017Z,3.80
2022-11-26T06:00:47.810Z,3.45
2022-11-26T06:01:44.700Z,4.27
2022-11-26T06:02:41.970Z,3.37
2022-11-26T06:03:38.965Z,4.17
2022-11-26T06:04:35.794Z,4.36
2022-11-26T06:05:32.775Z,4.49
2022-11-26T06:06:29.596Z,4.17
2022-11-26T06:07:26.424Z,4.42
2022-11-26T06:08:23.203Z,4.44
2022-11-26T06:09:20.029Z,4.30
2022-11-26T06:10:16.955Z,4.46
2022-11-26T06:11:13.782Z,4.55
2022-11-26T06:12:10.625Z,4.28
2022-11-26T06:13:07.318Z,4.57
2022-11-26T06:14:04.119Z,4.57
2022-11-26T06:15:00.874Z,3.37
2022-11-26T06:15:57.665Z,4.79
2022-11-26T06:16:54.444Z,4.53
2022-11-26T06:17:51.219Z,3.95
2022-11-26T06:18:47.970Z,4.35
2022-11-26T06:19:44.752Z,4.53
2022-11-26T06:20:41.484Z,4.90
2022-11-26T06:21:38.276Z,4.36
2022-11-26T06:22:42.206Z,5.07
2022-11-26T06:23:39.521Z,5.10
2022-11-26T06:24:37.955Z,5.10
2022-11-26T06:25:34.843Z,4.74
2022-11-26T06:26:31.631Z,5.05
2022-11-26T06:27:28.436Z,5.13
2022-11-26T06:28:25.181Z,5.38
2022-11-26T06:29:27.564Z,5.14
2022-11-26T06:30:24.918Z,5.71
2022-11-26T06:31:21.786Z,5.55
2022-11-26T06:32:18.518Z,5.43
2022-11-26T06:33:15.243Z,5.42
2022-11-26T06:34:11.992Z,5.45
2022-11-26T06:35:09.251Z,5.71
2022-11-26T06:36:06.310Z,4.49
2022-11-26T06:37:03.311Z,5.91
2022-11-26T06:38:00.108Z,5.87
2022-11-26T06:38:56.906Z,5.66
2022-11-26T06:39:53.762Z,5.93
2022-11-26T06:40:58.128Z,5.91
2022-11-26T06:41:54.908Z,5.82
2022-11-26T06:42:53.771Z,5.61
2022-11-26T06:43:50.615Z,5.54
2022-11-26T06:44:47.340Z,4.97
2022-11-26T06:45:44.210Z,5.25
2022-11-26T06:46:40.961Z,5.58
2022-11-26T06:47:37.679Z,5.53
2022-11-26T06:48:36.689Z,5.77
2022-11-26T06:49:33.546Z,5.63
2022-11-26T06:50:30.328Z,5.60
2022-11-26T06:51:27.826Z,5.70
2022-11-26T06:52:24.650Z,5.72
2022-11-26T06:53:21.470Z,5.66
2022-11-26T06:54:18.330Z,6.13
2022-11-26T06:55:15.184Z,5.80
2022-11-26T06:56:18.516Z,6.03
2022-11-26T06:57:15.797Z,6.11
2022-11-26T06:58:15.267Z,6.05
2022-11-26T06:59:12.134Z,5.87
2022-11-26T07:00:09.920Z,6.27
2022-11-26T07:01:16.443Z,4.76
2022-11-26T07:02:13.295Z,5.73
2022-11-26T07:03:10.579Z,5.56
2022-11-26T07:04:07.513Z,5.67
2022-11-26T07:05:04.612Z,5.29
2022-11-26T07:06:01.379Z,5.35
2022-11-26T07:06:58.093Z,4.41
2022-11-26T07:07:54.926Z,6.04
2022-11-26T07:08:54.391Z,6.03
2022-11-26T07:09:51.093Z,6.25
2022-11-26T07:10:49.359Z,5.93
2022-11-26T07:11:46.526Z,6.12
2022-11-26T07:12:43.354Z,6.04
2022-11-26T07:13:40.469Z,5.41
2022-11-26T07:14:37.759Z,5.97
2022-11-26T07:15:34.772Z,6.05
2022-11-26T07:16:32.284Z,5.86
2022-11-26T07:17:29.482Z,5.52
2022-11-26T07:18:26.242Z,5.14
2022-11-26T07:19:23.112Z,5.41
2022-11-26T07:20:19.936Z,5.98
2022-11-26T07:21:17.413Z,5.31
2022-11-26T07:22:14.192Z,5.86
2022-11-26T07:23:11.003Z,5.92
2022-11-26T07:24:07.805Z,5.90
2022-11-26T07:25:09.313Z,6.61
2022-11-26T07:26:10.969Z,6.71
2022-11-26T07:27:08.938Z,5.80
2022-11-26T07:28:05.735Z,5.95
2022-11-26T07:29:02.493Z,6.84
2022-11-26T07:29:59.293Z,6.02
2022-11-26T07:31:03.345Z,5.37
2022-11-26T07:32:00.207Z,5.89
2022-11-26T07:32:57.037Z,6.38
2022-11-26T07:33:53.841Z,6.21
2022-11-26T07:34:50.610Z,6.54
2022-11-26T07:35:47.495Z,6.07
2022-11-26T07:36:45.207Z,6.09
2022-11-26T07:37:41.883Z,6.49
2022-11-26T07:38:38.631Z,6.01
2022-11-26T07:39:35.389Z,6.26
2022-11-26T07:40:32.339Z,6.00
2022-11-26T07:41:30.568Z,6.11
2022-11-26T07:42:33.147Z,5.87
2022-11-26T07:43:29.896Z,6.38
2022-11-26T07:44:26.652Z,6.31
2022-11-26T07:45:23.503Z,6.51
2022-11-26T07:46:31.262Z,6.05
2022-11-26T07:47:28.126Z,6.08
2022-11-26T07:48:26.774Z,5.44
2022-11-26T07:49:41.549Z,6.53
2022-11-26T07:50:38.339Z,6.18
2022-11-26T07:51:36.951Z,5.66
2022-11-26T07:52:33.767Z,6.00
2022-11-26T07:53:35.973Z,6.83
2022-11-26T07:54:32.725Z,6.07
2022-11-26T07:55:29.646Z,6.65
2022-11-26T07:56:27.174Z,6.32
2022-11-26T07:57:25.340Z,6.17
2022-11-26T07:58:22.220Z,5.78
2022-11-26T07:59:19.158Z,5.86
2022-11-26T08:00:16.847Z,5.91
2022-11-26T08:01:16.992Z,6.18
2022-11-26T08:02:15.067Z,6.15
2022-11-26T08:03:11.988Z,6.15
2022-11-26T08:04:09.003Z,6.78
2022-11-26T08:05:11.690Z,6.10
2022-11-26T08:06:11.899Z,6.62
2022-11-26T08:07:08.831Z,6.27
2022-11-26T08:08:05.812Z,6.20
2022-11-26T08:09:04.180Z,6.31
2022-11-26T08:10:03.683Z,6.41
2022-11-26T08:11:00.465Z,6.12
2022-11-26T08:11:59.599Z,6.40
2022-11-26T08:12:56.348Z,6.20
2022-11-26T08:13:56.315Z,6.38
2022-11-26T08:14:53.200Z,6.55
2022-11-26T08:15:50.152Z,5.24
2022-11-26T08:16:47.075Z,6.52
2022-11-26T08:17:43.888Z,6.43
2022-11-26T08:18:41.809Z,5.95
2022-11-26T08:19:38.668Z,6.49
2022-11-26T08:20:35.463Z,6.79
2022-11-26T08:21:32.668Z,7.02
2022-11-26T08:22:30.237Z,6.96
2022-11-26T08:23:30.259Z,6.94
2022-11-26T08:24:26.986Z,6.59
2022-11-26T08:25:23.753Z,5.27
2022-11-26T08:26:27.586Z,6.20
2022-11-26T08:27:32.581Z,6.18
2022-11-26T08:28:29.318Z,6.25
2022-11-26T08:29:26.532Z,6.57
2022-11-26T08:30:23.310Z,6.77
2022-11-26T08:31:20.932Z,6.36
2022-11-26T08:32:17.746Z,6.23
2022-11-26T08:33:15.536Z,6.05
2022-11-26T08:34:15.174Z,6.02
2022-11-26T08:35:12.631Z,6.12
2022-11-26T08:36:11.732Z,6.52
2022-11-26T08:37:08.761Z,6.31
2022-11-26T08:38:05.707Z,6.16
2022-11-26T08:40:16.850Z,6.76
2022-11-26T08:41:14.263Z,6.72
2022-11-26T08:42:11.035Z,6.72
2022-11-26T08:43:09.156Z,6.81
2022-11-26T08:44:07.415Z,6.73
2022-11-26T08:45:04.978Z,6.71
2022-11-26T08:46:02.505Z,6.57
2022-11-26T08:46:59.303Z,7.17
2022-11-26T08:47:56.018Z,6.83
2022-11-26T08:48:55.530Z,6.44
2022-11-26T08:49:52.360Z,6.44
2022-11-26T08:50:49.241Z,6.57
2022-11-26T08:51:46.169Z,6.18
2022-11-26T08:52:43.769Z,6.69
2022-11-26T08:53:40.703Z,6.53
2022-11-26T08:54:42.047Z,7.15
2022-11-26T08:55:59.801Z,6.99
2022-11-26T08:56:57.357Z,6.06
2022-11-26T08:57:54.080Z,6.90
2022-11-26T08:58:51.516Z,6.70
2022-11-26T08:59:48.253Z,6.57
2022-11-26T09:00:44.996Z,6.40
2022-11-26T09:01:42.120Z,7.06
2022-11-26T09:02:39.074Z,6.85
2022-11-26T09:03:36.454Z,7.05
2022-11-26T09:04:33.335Z,7.02
2022-11-26T09:05:30.077Z,6.43
2022-11-26T09:06:30.045Z,7.20
2022-11-26T09:07:28.293Z,6.84
2022-11-26T09:08:27.812Z,6.60
2022-11-26T09:09:24.612Z,6.60
2022-11-26T09:10:21.521Z,6.33
2022-11-26T09:11:18.354Z,5.88
2022-11-26T09:12:15.196Z,6.77
2022-11-26T09:13:11.923Z,3.40
2022-11-26T09:14:10.027Z,6.72
2022-11-26T09:15:07.348Z,7.32
2022-11-26T09:16:04.254Z,7.21
2022-11-26T09:17:01.609Z,7.65
2022-11-26T09:17:58.355Z,7.67
2022-11-26T09:18:55.204Z,6.87
2022-11-26T09:19:51.937Z,6.64
2022-11-26T09:20:52.829Z,6.67
2022-11-26T09:21:52.504Z,6.68
2022-11-26T09:22:49.249Z,6.62
2022-11-26T09:23:46.118Z,6.68
2022-11-26T09:24:42.981Z,5.96
2022-11-26T09:25:40.639Z,6.26
2022-11-26T09:26:38.043Z,6.23
2022-11-26T09:27:34.778Z,6.11
2022-11-26T09:28:31.548Z,6.55
2022-11-26T09:29:28.224Z,6.89
2022-11-26T09:30:25.006Z,7.50
2022-11-26T09:31:21.901Z,6.86
2022-11-26T09:32:29.728Z,6.66
2022-11-26T09:33:31.849Z,7.24
2022-11-26T09:34:28.754Z,7.52
2022-11-26T09:35:25.904Z,5.71
2022-11-26T09:36:22.662Z,6.98
2022-11-26T09:37:19.506Z,6.68
2022-11-26T09:38:16.250Z,6.18
2022-11-26T09:39:13.997Z,6.03
2022-11-26T09:40:18.567Z,6.62
2022-11-26T09:41:27.283Z,6.88
2022-11-26T09:42:32.926Z,6.62
2022-11-26T09:44:00.967Z,7.08
2022-11-26T09:45:12.591Z,6.47
2022-11-26T09:46:13.897Z,6.93
2022-11-26T09:47:12.476Z,6.96
2022-11-26T09:48:19.929Z,7.16
2022-11-26T09:49:17.853Z,6.90
2022-11-26T09:50:14.536Z,7.10
2022-11-26T09:51:17.224Z,7.23
2022-11-26T09:52:20.072Z,6.75
2022-11-26T09:53:27.896Z,6.72
2022-11-26T09:54:29.598Z,6.73
2022-11-26T09:55:38.884Z,5.95
2022-11-26T09:56:38.090Z,6.99
2022-11-26T09:57:44.781Z,7.11
2022-11-26T09:58:50.961Z,6.99
2022-11-26T09:59:52.009Z,7.24
2022-11-26T10:00:54.739Z,7.00
2022-11-26T10:01:51.574Z,6.77
2022-11-26T10:02:48.426Z,6.67
2022-11-26T10:03:45.280Z,7.36
2022-11-26T10:04:42.474Z,7.35
2022-11-26T10:05:44.422Z,7.39
2022-11-26T10:06:50.632Z,7.41
2022-11-26T10:08:19.208Z,6.62
2022-11-26T10:09:34.616Z,7.44
2022-11-26T10:11:02.525Z,7.39
2022-11-26T10:12:25.097Z,7.71
2022-11-26T10:13:38.541Z,6.92
2022-11-26T10:15:02.801Z,7.43
2022-11-26T10:16:24.882Z,7.76
2022-11-26T10:17:40.363Z,7.87
2022-11-26T10:19:09.350Z,7.78
2022-11-26T10:20:20.902Z,7.72
2022-11-26T10:21:58.585Z,7.72
2022-11-26T10:23:11.087Z,7.44
2022-11-26T10:24:27.520Z,7.42
2022-11-26T10:25:29.261Z,7.51
2022-11-26T10:26:34.495Z,7.65
2022-11-26T10:27:35.110Z,7.50
2022-11-26T10:28:48.016Z,7.30
2022-11-26T10:29:52.674Z,7.54
2022-11-26T10:31:18.832Z,7.88
2022-11-26T10:32:23.660Z,7.84
2022-11-26T10:33:20.619Z,7.52
2022-11-26T10:34:29.798Z,7.45
2022-11-26T10:35:29.638Z,7.53
2022-11-26T10:36:34.075Z,7.60
2022-11-26T10:37:31.075Z,7.64
2022-11-26T10:38:27.842Z,6.94
2022-11-26T10:39:24.625Z,7.29
2022-11-26T10:40:25.747Z,7.69
2022-11-26T10:41:26.620Z,7.81
2022-11-26T10:42:23.920Z,7.37
2022-11-26T10:43:24.918Z,7.99
2022-11-26T10:44:49.009Z,8.12
2022-11-26T10:45:47.868Z,7.71
2022-11-26T10:46:44.716Z,8.05
2022-11-26T10:47:41.461Z,7.70
2022-11-26T10:48:38.353Z,7.69
2022-11-26T10:49:35.087Z,7.71
2022-11-26T10:50:50.545Z,7.31
2022-11-26T10:51:50.416Z,7.99
2022-11-26T10:52:48.314Z,7.96
2022-11-26T10:53:59.747Z,8.58
2022-11-26T10:55:27.662Z,8.73
2022-11-26T10:56:35.589Z,8.51
2022-11-26T10:57:40.600Z,8.04
2022-11-26T10:58:44.560Z,8.50
2022-11-26T10:59:43.931Z,8.58
2022-11-26T11:00:54.226Z,7.83
2022-11-26T11:01:57.498Z,7.11
2022-11-26T11:02:55.635Z,7.82
2022-11-26T11:04:07.730Z,8.13
2022-11-26T11:05:09.194Z,8.34
2022-11-26T11:06:20.905Z,8.51
2022-11-26T11:07:37.159Z,8.55
2022-11-26T11:08:33.923Z,8.13
2022-11-26T11:09:32.554Z,7.79
2022-11-26T11:10:29.382Z,7.94
2022-11-26T11:11:29.363Z,8.22
2022-11-26T11:12:26.327Z,8.27
2022-11-26T11:13:38.636Z,8.51
2022-11-26T11:14:39.622Z,8.18
2022-11-26T11:15:41.208Z,6.94
2022-11-26T11:16:43.966Z,8.42
2022-11-26T11:17:41.083Z,8.64
2022-11-26T11:18:48.477Z,8.44
2022-11-26T11:19:45.312Z,8.38
2022-11-26T11:20:50.786Z,8.50
2022-11-26T11:21:48.705Z,7.33
2022-11-26T11:22:47.028Z,7.99
2022-11-26T11:24:07.770Z,7.42
2022-11-26T11:25:01.100Z,8.30
2022-11-26T11:26:17.778Z,8.38
2022-11-26T11:27:27.265Z,8.44
2022-11-26T11:28:29.142Z,8.25
2022-11-26T11:29:36.677Z,8.77
2022-11-26T11:30:37.552Z,8.41
2022-11-26T11:31:45.856Z,9.09
2022-11-26T11:32:42.673Z,8.68
2022-11-26T11:33:40.280Z,8.30
2022-11-26T11:34:42.463Z,8.45
2022-11-26T11:35:39.460Z,8.60
2022-11-26T11:36:36.353Z,8.64
2022-11-26T11:37:33.146Z,8.54
2022-11-26T11:38:34.718Z,8.40
2022-11-26T11:39:35.363Z,8.82
2022-11-26T11:40:42.253Z,8.80
2022-11-26T11:41:45.551Z,9.09
2022-11-26T11:42:46.183Z,9.29
2022-11-26T11:43:43.051Z,8.87
2022-11-26T11:44:44.428Z,8.83
2022-11-26T11:45:46.286Z,8.67
2022-11-26T11:47:06.325Z,8.85
2022-11-26T11:48:16.834Z,8.53
2022-11-26T11:49:42.554Z,8.97
2022-11-26T11:50:50.214Z,8.99
2022-11-26T11:52:07.178Z,9.20
2022-11-26T11:53:16.028Z,8.98
2022-11-26T11:54:38.668Z,8.82
2022-11-26T11:56:07.691Z,8.92
2022-11-26T11:57:27.242Z,6.80
2022-11-26T11:58:48.517Z,8.66
2022-11-26T12:00:14.883Z,8.25
2022-11-26T12:01:37.859Z,7.84
2022-11-26T12:02:59.769Z,8.87
2022-11-26T12:04:09.026Z,8.93
2022-11-26T12:05:27.564Z,8.98
2022-11-26T12:06:48.053Z,9.28
2022-11-26T12:08:04.500Z,9.22
2022-11-26T12:09:01.257Z,9.27
2022-11-26T12:10:16.727Z,9.30
2022-11-26T12:11:42.620Z,9.13
2022-11-26T12:12:57.078Z,9.18
2022-11-26T12:14:06.344Z,8.80
2022-11-26T12:15:26.284Z,8.54
2022-11-26T12:16:29.114Z,8.51
2022-11-26T12:17:37.832Z,9.05
2022-11-26T12:18:51.733Z,8.75
2022-11-26T12:19:59.128Z,8.41
2022-11-26T12:21:12.997Z,9.15
2022-11-26T12:22:22.665Z,9.12
2022-11-26T12:23:47.735Z,9.02
2022-11-26T12:24:52.830Z,8.58
2022-11-26T12:26:02.690Z,8.70
2022-11-26T12:27:10.390Z,8.99
2022-11-26T12:28:16.504Z,8.93
2022-11-26T12:29:37.766Z,8.94
2022-11-26T12:31:01.501Z,9.01
2022-11-26T12:32:10.524Z,8.90
2022-11-26T12:33:17.149Z,9.15
2022-11-26T12:34:24.300Z,9.10
2022-11-26T12:35:39.600Z,9.11
2022-11-26T12:37:02.423Z,8.14
2022-11-26T12:38:17.698Z,9.01
2022-11-26T12:39:28.442Z,8.07
2022-11-26T12:40:49.689Z,9.08
2022-11-26T12:41:58.262Z,9.25
2022-11-26T12:43:15.587Z,9.24
2022-11-26T12:44:23.850Z,8.96
2022-11-26T12:45:42.940Z,9.30
2022-11-26T12:47:10.203Z,9.24
2022-11-26T12:48:42.626Z,9.03
2022-11-26T12:50:00.409Z,8.68
2022-11-26T12:51:34.514Z,9.52
2022-11-26T12:52:38.419Z,9.65
2022-11-26T12:53:58.059Z,9.50
2022-11-26T12:55:28.627Z,9.26
2022-11-26T12:56:33.775Z,8.73
2022-11-26T12:57:42.956Z,8.45
2022-11-26T12:58:55.874Z,9.46
2022-11-26T13:00:26.212Z,9.51
2022-11-26T13:01:26.900Z,9.65
2022-11-26T13:02:37.172Z,9.71
2022-11-26T13:03:34.388Z,9.69
2022-11-26T13:04:38.596Z,9.40
2022-11-26T13:05:55.964Z,9.39
2022-11-26T13:07:17.434Z,9.41
2022-11-26T13:08:26.407Z,9.48
2022-11-26T13:10:24.348Z,9.69
2022-11-26T13:11:21.715Z,9.56
2022-11-26T13:13:02.299Z,9.63
2022-11-26T13:14:11.423Z,9.54
2022-11-26T13:15:28.842Z,9.57
2022-11-26T13:16:42.027Z,9.17
2022-11-26T13:17:45.490Z,9.01
2022-11-26T13:18:50.717Z,9.45
2022-11-26T13:20:07.130Z,9.09
2022-11-26T13:21:34.933Z,9.86
2022-11-26T13:22:40.977Z,9.83
2022-11-26T13:24:19.772Z,9.05
2022-11-26T13:25:44.038Z,8.67
2022-11-26T13:27:02.012Z,9.22
2022-11-26T13:28:01.547Z,9.36
2022-11-26T13:29:21.461Z,9.42
2022-11-26T13:30:24.660Z,8.22
2022-11-26T13:31:43.749Z,9.03
2022-11-26T13:32:40.543Z,9.45
2022-11-26T13:34:14.777Z,9.39
2022-11-26T13:35:21.994Z,9.33
2022-11-26T13:36:35.660Z,9.05
2022-11-26T13:38:07.567Z,9.47
2022-11-26T13:39:39.345Z,9.58
2022-11-26T13:40:48.933Z,8.99
2022-11-26T13:42:24.189Z,9.81
2022-11-26T13:43:39.653Z,9.81
2022-11-26T13:44:46.939Z,9.82
2022-11-26T13:45:55.943Z,9.90